sensor_id;sensor_type;location;lat;lon;timestamp;pressure;altitude;pressure_sealevel;temperature;humidity
14041;BME280;7095;51.388;6.196;2024-02-14T00:01:09;105377.34;;;-145.32;100.00
14041;BME280;7095;51.388;6.196;2024-02-14T00:03:41;105377.34;;;-145.32;100.00
14041;BME280;7095;51.388;6.196;2024-02-14T00:06:10;105119.03;;;-145.32;100.00
14041;BME280;7095;51.388;6.196;2024-02-14T00:08:40;105635.72;;;-145.32;100.00
14041;BME280;7095;51.388;6.196;2024-02-14T00:11:09;106669.31;;;-145.32;100.00
14041;BME280;7095;51.388;6.196;2024-02-14T00:13:37;107703.22;;;-145.32;100.00
14041;BME280;7095;51.388;6.196;2024-02-14T00:16:06;107961.72;;;-145.32;100.00
14041;BME280;7095;51.388;6.196;2024-02-14T00:18:35;108478.84;;;-145.32;100.00
14041;BME280;7095;51.388;6.196;2024-02-14T00:21:04;108478.84;;;-145.32;100.00
14041;BME280;7095;51.388;6.196;2024-02-14T00:23:32;108996.00;;;-145.32;100.00
14041;BME280;7095;51.388;6.196;2024-02-14T00:26:03;109513.28;;;-145.32;100.00
14041;BME280;7095;51.388;6.196;2024-02-14T00:28:31;109771.94;;;-145.32;100.00
14041;BME280;7095;51.388;6.196;2024-02-14T00:31:00;110030.59;;;-145.32;100.00
14041;BME280;7095;51.388;6.196;2024-02-14T00:33:44;110030.59;;;-145.32;100.00
14041;BME280;7095;51.388;6.196;2024-02-14T00:36:14;110289.28;;;-145.32;100.00
14041;BME280;7095;51.388;6.196;2024-02-14T00:38:42;110030.59;;;-145.32;100.00
14041;BME280;7095;51.388;6.196;2024-02-14T00:41:12;110289.28;;;-145.32;100.00
14041;BME280;7095;51.388;6.196;2024-02-14T00:43:41;110289.28;;;-145.32;100.00
14041;BME280;7095;51.388;6.196;2024-02-14T00:46:14;110289.28;;;-145.32;100.00
14041;BME280;7095;51.388;6.196;2024-02-14T00:48:43;110548.00;;;-145.32;100.00
14041;BME280;7095;51.388;6.196;2024-02-14T00:51:12;110289.28;;;-145.32;100.00
14041;BME280;7095;51.388;6.196;2024-02-14T00:53:41;109771.94;;;-145.32;100.00
14041;BME280;7095;51.388;6.196;2024-02-14T00:56:09;109254.63;;;-145.32;100.00
14041;BME280;7095;51.388;6.196;2024-02-14T00:58:39;108737.41;;;-145.32;100.00
14041;BME280;7095;51.388;6.196;2024-02-14T01:01:08;108478.84;;;-145.32;100.00
14041;BME280;7095;51.388;6.196;2024-02-14T01:03:36;107703.22;;;-145.32;100.00
14041;BME280;7095;51.388;6.196;2024-02-14T01:06:05;107186.22;;;-145.32;100.00
14041;BME280;7095;51.388;6.196;2024-02-14T01:08:33;106669.31;;;-145.32;100.00
14041;BME280;7095;51.388;6.196;2024-02-14T01:11:03;106669.31;;;-145.32;100.00
14041;BME280;7095;51.388;6.196;2024-02-14T01:13:32;106152.47;;;-145.32;100.00
14041;BME280;7095;51.388;6.196;2024-02-14T01:16:02;105894.09;;;-145.32;100.00
14041;BME280;7095;51.388;6.196;2024-02-14T01:18:31;105119.03;;;-145.32;100.00
14041;BME280;7095;51.388;6.196;2024-02-14T01:20:59;105635.72;;;-145.32;100.00
14041;BME280;7095;51.388;6.196;2024-02-14T01:23:28;105377.34;;;-145.32;100.00
14041;BME280;7095;51.388;6.196;2024-02-14T01:25:57;104860.72;;;-145.32;100.00
14041;BME280;7095;51.388;6.196;2024-02-14T01:28:25;104344.16;;;-145.32;100.00
14041;BME280;7095;51.388;6.196;2024-02-14T01:30:53;103827.66;;;-145.32;100.00
14041;BME280;7095;51.388;6.196;2024-02-14T01:33:25;103827.66;;;-145.32;100.00
14041;BME280;7095;51.388;6.196;2024-02-14T01:35:54;103827.66;;;-145.32;100.00
14041;BME280;7095;51.388;6.196;2024-02-14T01:38:23;103827.66;;;-145.32;100.00
14041;BME280;7095;51.388;6.196;2024-02-14T01:40:51;103827.66;;;-145.32;100.00
14041;BME280;7095;51.388;6.196;2024-02-14T01:43:20;103053.06;;;-145.32;100.00
14041;BME280;7095;51.388;6.196;2024-02-14T01:45:48;103569.44;;;-145.32;100.00
14041;BME280;7095;51.388;6.196;2024-02-14T01:48:20;103569.44;;;-145.32;100.00
14041;BME280;7095;51.388;6.196;2024-02-14T01:50:50;103311.25;;;-145.32;100.00
14041;BME280;7095;51.388;6.196;2024-02-14T01:53:19;102794.91;;;-145.32;100.00
14041;BME280;7095;51.388;6.196;2024-02-14T01:55:48;103053.06;;;-145.32;100.00
14041;BME280;7095;51.388;6.196;2024-02-14T01:58:18;102536.75;;;-145.32;100.00
14041;BME280;7095;51.388;6.196;2024-02-14T02:00:47;102794.91;;;-145.32;100.00
14041;BME280;7095;51.388;6.196;2024-02-14T02:03:16;102536.75;;;-145.32;100.00
14041;BME280;7095;51.388;6.196;2024-02-14T02:05:45;101504.38;;;-145.32;100.00
14041;BME280;7095;51.388;6.196;2024-02-14T02:08:15;101246.34;;;-145.32;100.00
14041;BME280;7095;51.388;6.196;2024-02-14T02:10:44;101762.47;;;-145.32;100.00
14041;BME280;7095;51.388;6.196;2024-02-14T02:13:32;100730.31;;;-145.32;100.00
14041;BME280;7095;51.388;6.196;2024-02-14T02:16:20;100214.34;;;-145.32;100.00
14041;BME280;7095;51.388;6.196;2024-02-14T02:19:09;100472.31;;;-145.32;100.00
14041;BME280;7095;51.388;6.196;2024-02-14T02:22:07;100472.31;;;-145.32;100.00
14041;BME280;7095;51.388;6.196;2024-02-14T02:24:58;100988.31;;;-145.32;100.00
14041;BME280;7095;51.388;6.196;2024-02-14T02:27:30;100730.31;;;-145.32;100.00
14041;BME280;7095;51.388;6.196;2024-02-14T02:30:18;101246.34;;;-145.32;100.00
14041;BME280;7095;51.388;6.196;2024-02-14T02:32:46;101504.38;;;-145.32;100.00
14041;BME280;7095;51.388;6.196;2024-02-14T02:35:15;101246.34;;;-145.32;100.00
14041;BME280;7095;51.388;6.196;2024-02-14T02:38:03;101504.38;;;-145.32;100.00
14041;BME280;7095;51.388;6.196;2024-02-14T02:40:53;102020.53;;;-145.32;100.00
14041;BME280;7095;51.388;6.196;2024-02-14T02:43:41;102278.66;;;-145.32;100.00
14041;BME280;7095;51.388;6.196;2024-02-14T02:46:48;103311.25;;;-145.32;100.00
14041;BME280;7095;51.388;6.196;2024-02-14T02:49:42;104344.16;;;-145.32;100.00
14041;BME280;7095;51.388;6.196;2024-02-14T02:52:31;105377.34;;;-145.32;100.00
14041;BME280;7095;51.388;6.196;2024-02-14T02:55:20;105894.09;;;-145.32;100.00
14041;BME280;7095;51.388;6.196;2024-02-14T02:57:55;106152.47;;;-145.32;100.00
14041;BME280;7095;51.388;6.196;2024-02-14T03:00:26;106410.88;;;-145.32;100.00
14041;BME280;7095;51.388;6.196;2024-02-14T03:03:08;106669.31;;;-145.32;100.00
14041;BME280;7095;51.388;6.196;2024-02-14T03:05:53;106927.75;;;-145.32;100.00
14041;BME280;7095;51.388;6.196;2024-02-14T03:08:37;106927.75;;;-145.32;100.00
14041;BME280;7095;51.388;6.196;2024-02-14T03:11:27;107186.22;;;-145.32;100.00
14041;BME280;7095;51.388;6.196;2024-02-14T03:14:17;107444.69;;;-145.32;100.00
14041;BME280;7095;51.388;6.196;2024-02-14T03:17:05;107703.22;;;-145.32;100.00
14041;BME280;7095;51.388;6.196;2024-02-14T03:19:36;107961.72;;;-145.32;100.00
14041;BME280;7095;51.388;6.196;2024-02-14T03:22:06;107961.72;;;-145.32;100.00
14041;BME280;7095;51.388;6.196;2024-02-14T03:24:37;107703.22;;;-145.32;100.00
14041;BME280;7095;51.388;6.196;2024-02-14T03:27:05;107703.22;;;-145.32;100.00
14041;BME280;7095;51.388;6.196;2024-02-14T03:29:35;107444.69;;;-145.32;100.00
14041;BME280;7095;51.388;6.196;2024-02-14T03:32:06;107186.22;;;-145.32;100.00
14041;BME280;7095;51.388;6.196;2024-02-14T03:34:35;107186.22;;;-145.32;100.00
14041;BME280;7095;51.388;6.196;2024-02-14T03:37:04;106927.75;;;-145.32;100.00
14041;BME280;7095;51.388;6.196;2024-02-14T03:39:34;106669.31;;;-145.32;100.00
14041;BME280;7095;51.388;6.196;2024-02-14T03:42:03;106669.31;;;-145.32;100.00
14041;BME280;7095;51.388;6.196;2024-02-14T03:44:36;106669.31;;;-145.32;100.00
14041;BME280;7095;51.388;6.196;2024-02-14T03:47:05;106927.75;;;-145.32;100.00
14041;BME280;7095;51.388;6.196;2024-02-14T03:49:33;106927.75;;;-145.32;100.00
14041;BME280;7095;51.388;6.196;2024-02-14T03:52:03;106927.75;;;-145.32;100.00
14041;BME280;7095;51.388;6.196;2024-02-14T03:54:36;107186.22;;;-145.32;100.00
14041;BME280;7095;51.388;6.196;2024-02-14T03:57:05;107961.72;;;-145.32;100.00
14041;BME280;7095;51.388;6.196;2024-02-14T03:59:37;108737.41;;;-145.32;100.00
14041;BME280;7095;51.388;6.196;2024-02-14T04:02:07;109254.63;;;-145.32;100.00
14041;BME280;7095;51.388;6.196;2024-02-14T04:04:37;109513.28;;;-145.32;100.00
14041;BME280;7095;51.388;6.196;2024-02-14T04:07:07;109771.94;;;-145.32;100.00
14041;BME280;7095;51.388;6.196;2024-02-14T04:09:36;109771.94;;;-145.32;100.00
14041;BME280;7095;51.388;6.196;2024-02-14T04:12:05;110289.28;;;-145.32;100.00
14041;BME280;7095;51.388;6.196;2024-02-14T04:14:34;110289.28;;;-145.32;100.00
14041;BME280;7095;51.388;6.196;2024-02-14T04:17:04;110289.28;;;-145.32;100.00
14041;BME280;7095;51.388;6.196;2024-02-14T04:19:35;110030.59;;;-145.32;100.00
14041;BME280;7095;51.388;6.196;2024-02-14T04:22:04;109771.94;;;-145.32;100.00
14041;BME280;7095;51.388;6.196;2024-02-14T04:24:33;109771.94;;;-145.32;100.00
14041;BME280;7095;51.388;6.196;2024-02-14T04:27:02;109771.94;;;-145.32;100.00
14041;BME280;7095;51.388;6.196;2024-02-14T04:29:32;109771.94;;;-145.32;100.00
14041;BME280;7095;51.388;6.196;2024-02-14T04:32:04;110030.59;;;-145.32;100.00
14041;BME280;7095;51.388;6.196;2024-02-14T04:34:32;109513.28;;;-145.32;100.00
14041;BME280;7095;51.388;6.196;2024-02-14T04:37:01;109513.28;;;-145.32;100.00
14041;BME280;7095;51.388;6.196;2024-02-14T04:39:37;108996.00;;;-145.32;100.00
14041;BME280;7095;51.388;6.196;2024-02-14T04:42:05;109254.63;;;-145.32;100.00
14041;BME280;7095;51.388;6.196;2024-02-14T04:44:35;110030.59;;;-145.32;100.00
14041;BME280;7095;51.388;6.196;2024-02-14T04:47:05;111065.50;;;-145.32;100.00
14041;BME280;7095;51.388;6.196;2024-02-14T04:49:36;111324.28;;;-145.32;100.00
14041;BME280;7095;51.388;6.196;2024-02-14T04:52:05;111841.88;;;-145.32;100.00
14041;BME280;7095;51.388;6.196;2024-02-14T04:54:34;111841.88;;;-145.32;100.00
14041;BME280;7095;51.388;6.196;2024-02-14T04:57:03;112100.69;;;-145.32;100.00
14041;BME280;7095;51.388;6.196;2024-02-14T04:59:31;111841.88;;;-145.32;100.00
14041;BME280;7095;51.388;6.196;2024-02-14T05:02:00;111583.06;;;-145.32;100.00
14041;BME280;7095;51.388;6.196;2024-02-14T05:04:30;111583.06;;;-145.32;100.00
14041;BME280;7095;51.388;6.196;2024-02-14T05:06:58;111583.06;;;-145.32;100.00
14041;BME280;7095;51.388;6.196;2024-02-14T05:09:27;111583.06;;;-145.32;100.00
14041;BME280;7095;51.388;6.196;2024-02-14T05:11:55;111583.06;;;-145.32;100.00
14041;BME280;7095;51.388;6.196;2024-02-14T05:14:25;111841.88;;;-145.32;100.00
14041;BME280;7095;51.388;6.196;2024-02-14T05:16:58;112100.69;;;-145.32;100.00
14041;BME280;7095;51.388;6.196;2024-02-14T05:19:30;112618.41;;;-145.32;100.00
14041;BME280;7095;51.388;6.196;2024-02-14T05:21:58;112877.31;;;-145.32;100.00
14041;BME280;7095;51.388;6.196;2024-02-14T05:24:27;113136.22;;;-145.32;100.00
14041;BME280;7095;51.388;6.196;2024-02-14T05:26:56;113395.13;;;-145.32;100.00
14041;BME280;7095;51.388;6.196;2024-02-14T05:29:25;113654.06;;;-145.32;100.00
14041;BME280;7095;51.388;6.196;2024-02-14T05:31:53;113654.06;;;-145.32;100.00
14041;BME280;7095;51.388;6.196;2024-02-14T05:34:23;113913.03;;;-145.32;100.00
14041;BME280;7095;51.388;6.196;2024-02-14T05:36:53;114172.03;;;-145.32;100.00
14041;BME280;7095;51.388;6.196;2024-02-14T05:39:21;114431.03;;;-145.32;100.00
14041;BME280;7095;51.388;6.196;2024-02-14T05:41:51;114690.03;;;-145.32;100.00
14041;BME280;7095;51.388;6.196;2024-02-14T05:44:21;114690.03;;;-145.32;100.00
14041;BME280;7095;51.388;6.196;2024-02-14T05:46:49;114949.09;;;-145.32;100.00
14041;BME280;7095;51.388;6.196;2024-02-14T05:49:18;114949.09;;;-145.32;100.00
14041;BME280;7095;51.388;6.196;2024-02-14T05:51:47;114690.03;;;-145.32;100.00
14041;BME280;7095;51.388;6.196;2024-02-14T05:54:18;114690.03;;;-145.32;100.00
14041;BME280;7095;51.388;6.196;2024-02-14T05:56:47;114690.03;;;-145.32;100.00
14041;BME280;7095;51.388;6.196;2024-02-14T05:59:16;114949.09;;;-145.32;100.00
14041;BME280;7095;51.388;6.196;2024-02-14T06:01:44;115208.13;;;-145.32;100.00
14041;BME280;7095;51.388;6.196;2024-02-14T06:04:12;115208.13;;;-145.32;100.00
14041;BME280;7095;51.388;6.196;2024-02-14T06:06:41;115467.22;;;-145.32;100.00
14041;BME280;7095;51.388;6.196;2024-02-14T06:09:10;115467.22;;;-145.32;100.00
14041;BME280;7095;51.388;6.196;2024-02-14T06:11:40;115726.31;;;-145.32;100.00
14041;BME280;7095;51.388;6.196;2024-02-14T06:14:09;115726.31;;;-145.32;100.00
14041;BME280;7095;51.388;6.196;2024-02-14T06:16:38;115726.31;;;-145.32;100.00
14041;BME280;7095;51.388;6.196;2024-02-14T06:19:06;115726.31;;;-145.32;100.00
14041;BME280;7095;51.388;6.196;2024-02-14T06:21:37;115728.34;;;-145.32;100.00
14041;BME280;7095;51.388;6.196;2024-02-14T06:24:06;115728.34;;;-145.32;100.00
14041;BME280;7095;51.388;6.196;2024-02-14T06:26:35;115728.34;;;-145.32;100.00
14041;BME280;7095;51.388;6.196;2024-02-14T06:29:05;115728.34;;;-145.32;100.00
14041;BME280;7095;51.388;6.196;2024-02-14T06:31:33;115728.34;;;-145.32;100.00
14041;BME280;7095;51.388;6.196;2024-02-14T06:34:02;115728.34;;;-145.32;100.00
14041;BME280;7095;51.388;6.196;2024-02-14T06:36:31;115728.34;;;-145.32;100.00
14041;BME280;7095;51.388;6.196;2024-02-14T06:38:59;115728.34;;;-145.32;100.00
14041;BME280;7095;51.388;6.196;2024-02-14T06:41:28;115728.34;;;-145.32;100.00
14041;BME280;7095;51.388;6.196;2024-02-14T06:43:56;115728.34;;;-145.32;100.00
14041;BME280;7095;51.388;6.196;2024-02-14T06:46:26;115728.34;;;-145.32;100.00
14041;BME280;7095;51.388;6.196;2024-02-14T06:48:55;115728.34;;;-145.32;100.00
14041;BME280;7095;51.388;6.196;2024-02-14T06:51:24;115728.34;;;-145.32;100.00
14041;BME280;7095;51.388;6.196;2024-02-14T06:53:54;115728.34;;;-145.32;100.00
14041;BME280;7095;51.388;6.196;2024-02-14T06:56:22;115728.34;;;-145.32;100.00
14041;BME280;7095;51.388;6.196;2024-02-14T06:58:51;115728.34;;;-145.32;100.00
14041;BME280;7095;51.388;6.196;2024-02-14T07:01:28;115728.34;;;-145.32;100.00
14041;BME280;7095;51.388;6.196;2024-02-14T07:06:25;115728.34;;;-145.32;100.00
14041;BME280;7095;51.388;6.196;2024-02-14T07:08:54;115728.34;;;-145.32;100.00
14041;BME280;7095;51.388;6.196;2024-02-14T07:11:23;115728.34;;;-145.32;100.00
14041;BME280;7095;51.388;6.196;2024-02-14T07:13:52;115728.34;;;-145.32;100.00
14041;BME280;7095;51.388;6.196;2024-02-14T07:16:20;115726.31;;;-145.32;100.00
14041;BME280;7095;51.388;6.196;2024-02-14T07:18:50;115726.31;;;-145.32;100.00
14041;BME280;7095;51.388;6.196;2024-02-14T07:21:19;115726.31;;;-145.32;100.00
14041;BME280;7095;51.388;6.196;2024-02-14T07:23:47;115726.31;;;-145.32;100.00
14041;BME280;7095;51.388;6.196;2024-02-14T07:26:17;115726.31;;;-145.32;100.00
14041;BME280;7095;51.388;6.196;2024-02-14T07:28:45;115726.31;;;-145.32;100.00
14041;BME280;7095;51.388;6.196;2024-02-14T07:31:14;115467.22;;;-145.32;100.00
14041;BME280;7095;51.388;6.196;2024-02-14T07:33:42;115467.22;;;-145.32;100.00
14041;BME280;7095;51.388;6.196;2024-02-14T07:36:13;115467.22;;;-145.32;100.00
14041;BME280;7095;51.388;6.196;2024-02-14T07:38:42;115726.31;;;-145.32;100.00
14041;BME280;7095;51.388;6.196;2024-02-14T07:41:10;115726.31;;;-145.32;100.00
14041;BME280;7095;51.388;6.196;2024-02-14T07:43:47;115728.34;;;-145.32;100.00
14041;BME280;7095;51.388;6.196;2024-02-14T07:46:18;115728.34;;;-145.32;100.00
14041;BME280;7095;51.388;6.196;2024-02-14T07:48:47;115728.34;;;-145.32;100.00
14041;BME280;7095;51.388;6.196;2024-02-14T07:51:19;115728.34;;;-145.32;100.00
14041;BME280;7095;51.388;6.196;2024-02-14T07:53:48;115728.34;;;-145.32;100.00
14041;BME280;7095;51.388;6.196;2024-02-14T07:56:17;115728.34;;;-145.32;100.00
14041;BME280;7095;51.388;6.196;2024-02-14T07:58:45;115728.34;;;-145.32;100.00
14041;BME280;7095;51.388;6.196;2024-02-14T08:01:15;115728.34;;;-145.32;100.00
14041;BME280;7095;51.388;6.196;2024-02-14T08:03:43;115728.34;;;-145.32;100.00
14041;BME280;7095;51.388;6.196;2024-02-14T08:06:13;115728.34;;;-145.32;100.00
14041;BME280;7095;51.388;6.196;2024-02-14T08:08:43;115728.34;;;-145.32;100.00
14041;BME280;7095;51.388;6.196;2024-02-14T08:11:12;115728.34;;;-145.32;100.00
14041;BME280;7095;51.388;6.196;2024-02-14T08:13:41;115728.34;;;-145.32;100.00
14041;BME280;7095;51.388;6.196;2024-02-14T08:16:09;115728.34;;;-145.32;100.00
14041;BME280;7095;51.388;6.196;2024-02-14T08:18:38;115728.34;;;-145.32;100.00
14041;BME280;7095;51.388;6.196;2024-02-14T08:21:08;115728.34;;;-145.32;100.00
14041;BME280;7095;51.388;6.196;2024-02-14T08:23:37;115728.34;;;-145.32;100.00
14041;BME280;7095;51.388;6.196;2024-02-14T08:26:07;115728.34;;;-145.32;100.00
14041;BME280;7095;51.388;6.196;2024-02-14T08:28:37;115728.34;;;-145.32;100.00
14041;BME280;7095;51.388;6.196;2024-02-14T08:31:10;115726.31;;;-145.32;100.00
14041;BME280;7095;51.388;6.196;2024-02-14T08:33:38;115467.22;;;-145.32;100.00
14041;BME280;7095;51.388;6.196;2024-02-14T08:36:07;115467.22;;;-145.32;100.00
14041;BME280;7095;51.388;6.196;2024-02-14T08:38:36;115208.13;;;-145.32;100.00
14041;BME280;7095;51.388;6.196;2024-02-14T08:41:06;114949.09;;;-145.32;100.00
14041;BME280;7095;51.388;6.196;2024-02-14T08:43:35;114690.03;;;-145.32;100.00
14041;BME280;7095;51.388;6.196;2024-02-14T08:46:09;114690.03;;;-145.32;100.00
14041;BME280;7095;51.388;6.196;2024-02-14T08:48:38;114690.03;;;-145.32;100.00
14041;BME280;7095;51.388;6.196;2024-02-14T08:51:14;114690.03;;;-145.32;100.00
14041;BME280;7095;51.388;6.196;2024-02-14T08:53:42;114690.03;;;-145.32;100.00
14041;BME280;7095;51.388;6.196;2024-02-14T08:56:14;113913.03;;;-145.32;100.00
14041;BME280;7095;51.388;6.196;2024-02-14T08:58:42;113913.03;;;-145.32;100.00
14041;BME280;7095;51.388;6.196;2024-02-14T09:01:11;113654.06;;;-145.32;100.00
14041;BME280;7095;51.388;6.196;2024-02-14T09:03:42;113654.06;;;-145.32;100.00
14041;BME280;7095;51.388;6.196;2024-02-14T09:06:17;113136.22;;;-145.32;100.00
14041;BME280;7095;51.388;6.196;2024-02-14T09:08:46;112877.31;;;-145.32;100.00
14041;BME280;7095;51.388;6.196;2024-02-14T09:11:16;112100.69;;;-145.32;100.00
14041;BME280;7095;51.388;6.196;2024-02-14T09:13:45;112100.69;;;-145.32;100.00
14041;BME280;7095;51.388;6.196;2024-02-14T09:16:15;111841.88;;;-145.32;100.00
14041;BME280;7095;51.388;6.196;2024-02-14T09:18:45;111583.06;;;-145.32;100.00
14041;BME280;7095;51.388;6.196;2024-02-14T09:21:14;110806.75;;;-145.32;100.00
14041;BME280;7095;51.388;6.196;2024-02-14T09:23:46;110548.00;;;-145.32;100.00
14041;BME280;7095;51.388;6.196;2024-02-14T09:26:16;110030.59;;;-145.32;100.00
14041;BME280;7095;51.388;6.196;2024-02-14T09:28:45;109513.28;;;-145.32;100.00
14041;BME280;7095;51.388;6.196;2024-02-14T09:31:17;109513.28;;;-145.32;100.00
14041;BME280;7095;51.388;6.196;2024-02-14T09:33:47;108737.41;;;-145.32;100.00
14041;BME280;7095;51.388;6.196;2024-02-14T09:36:16;108220.28;;;-145.32;100.00
14041;BME280;7095;51.388;6.196;2024-02-14T09:38:46;107703.22;;;-145.32;100.00
14041;BME280;7095;51.388;6.196;2024-02-14T09:41:22;107961.72;;;-145.32;100.00
14041;BME280;7095;51.388;6.196;2024-02-14T09:43:53;106927.75;;;-145.32;100.00
14041;BME280;7095;51.388;6.196;2024-02-14T09:46:24;106669.31;;;-145.32;100.00
14041;BME280;7095;51.388;6.196;2024-02-14T09:48:53;106152.47;;;-145.32;100.00
14041;BME280;7095;51.388;6.196;2024-02-14T09:51:23;106152.47;;;-145.32;100.00
14041;BME280;7095;51.388;6.196;2024-02-14T09:53:54;106410.88;;;-145.32;100.00
14041;BME280;7095;51.388;6.196;2024-02-14T09:56:24;107703.22;;;-145.32;100.00
14041;BME280;7095;51.388;6.196;2024-02-14T09:58:53;108996.00;;;-145.32;100.00
14041;BME280;7095;51.388;6.196;2024-02-14T10:01:25;110806.75;;;-145.32;100.00
14041;BME280;7095;51.388;6.196;2024-02-14T10:03:54;111841.88;;;-145.32;100.00
14041;BME280;7095;51.388;6.196;2024-02-14T10:06:23;112877.31;;;-145.32;100.00
14041;BME280;7095;51.388;6.196;2024-02-14T10:08:53;113136.22;;;-145.32;100.00
14041;BME280;7095;51.388;6.196;2024-02-14T10:11:32;113136.22;;;-145.32;100.00
14041;BME280;7095;51.388;6.196;2024-02-14T10:14:00;113395.13;;;-145.32;100.00
14041;BME280;7095;51.388;6.196;2024-02-14T10:16:32;113395.13;;;-145.32;100.00
14041;BME280;7095;51.388;6.196;2024-02-14T10:19:00;112359.53;;;-145.32;100.00
14041;BME280;7095;51.388;6.196;2024-02-14T10:21:31;112100.69;;;-145.32;100.00
14041;BME280;7095;51.388;6.196;2024-02-14T10:24:00;112359.53;;;-145.32;100.00
14041;BME280;7095;51.388;6.196;2024-02-14T10:26:31;111841.88;;;-145.32;100.00
14041;BME280;7095;51.388;6.196;2024-02-14T10:29:00;111841.88;;;-145.32;100.00
14041;BME280;7095;51.388;6.196;2024-02-14T10:31:28;111583.06;;;-145.32;100.00
14041;BME280;7095;51.388;6.196;2024-02-14T10:33:57;111324.28;;;-145.32;100.00
14041;BME280;7095;51.388;6.196;2024-02-14T10:36:27;111324.28;;;-145.32;100.00
14041;BME280;7095;51.388;6.196;2024-02-14T10:38:56;110289.28;;;-145.32;100.00
14041;BME280;7095;51.388;6.196;2024-02-14T10:41:26;110548.00;;;-145.32;100.00
14041;BME280;7095;51.388;6.196;2024-02-14T10:44:00;110548.00;;;-145.32;100.00
14041;BME280;7095;51.388;6.196;2024-02-14T10:46:32;110548.00;;;-145.32;100.00
14041;BME280;7095;51.388;6.196;2024-02-14T10:49:03;110289.28;;;-145.32;100.00
14041;BME280;7095;51.388;6.196;2024-02-14T10:51:34;110289.28;;;-145.32;100.00
14041;BME280;7095;51.388;6.196;2024-02-14T10:54:04;110289.28;;;-145.32;100.00
14041;BME280;7095;51.388;6.196;2024-02-14T10:56:34;110030.59;;;-145.32;100.00
14041;BME280;7095;51.388;6.196;2024-02-14T10:59:05;110030.59;;;-145.32;100.00
14041;BME280;7095;51.388;6.196;2024-02-14T11:01:35;110289.28;;;-145.32;100.00
14041;BME280;7095;51.388;6.196;2024-02-14T11:04:04;109771.94;;;-145.32;100.00
14041;BME280;7095;51.388;6.196;2024-02-14T11:06:44;109513.28;;;-145.32;100.00
14041;BME280;7095;51.388;6.196;2024-02-14T11:09:14;109771.94;;;-145.32;100.00
14041;BME280;7095;51.388;6.196;2024-02-14T11:11:44;109771.94;;;-145.32;100.00
14041;BME280;7095;51.388;6.196;2024-02-14T11:14:18;109513.28;;;-145.32;100.00
14041;BME280;7095;51.388;6.196;2024-02-14T11:16:46;109254.63;;;-145.32;100.00
14041;BME280;7095;51.388;6.196;2024-02-14T11:19:15;109254.63;;;-145.32;100.00
14041;BME280;7095;51.388;6.196;2024-02-14T11:21:46;109254.63;;;-145.32;100.00
14041;BME280;7095;51.388;6.196;2024-02-14T11:24:16;108996.00;;;-145.32;100.00
14041;BME280;7095;51.388;6.196;2024-02-14T11:26:48;109513.28;;;-145.32;100.00
14041;BME280;7095;51.388;6.196;2024-02-14T11:29:20;110289.28;;;-145.32;100.00
14041;BME280;7095;51.388;6.196;2024-02-14T11:31:58;111583.06;;;-145.32;100.00
14041;BME280;7095;51.388;6.196;2024-02-14T11:34:26;112359.53;;;-145.32;100.00
14041;BME280;7095;51.388;6.196;2024-02-14T11:36:55;112359.53;;;-145.32;100.00
14041;BME280;7095;51.388;6.196;2024-02-14T11:39:24;112359.53;;;-145.32;100.00
14041;BME280;7095;51.388;6.196;2024-02-14T11:41:53;112877.31;;;-145.32;100.00
14041;BME280;7095;51.388;6.196;2024-02-14T11:44:22;112877.31;;;-145.32;100.00
14041;BME280;7095;51.388;6.196;2024-02-14T11:46:53;112618.41;;;-145.32;100.00
14041;BME280;7095;51.388;6.196;2024-02-14T11:49:22;112618.41;;;-145.32;100.00
14041;BME280;7095;51.388;6.196;2024-02-14T11:51:51;112359.53;;;-145.32;100.00
14041;BME280;7095;51.388;6.196;2024-02-14T11:54:20;113136.22;;;-145.32;100.00
14041;BME280;7095;51.388;6.196;2024-02-14T11:56:49;113913.03;;;-145.32;100.00
14041;BME280;7095;51.388;6.196;2024-02-14T11:59:17;114431.03;;;-145.32;100.00
14041;BME280;7095;51.388;6.196;2024-02-14T12:01:48;114949.09;;;-145.32;100.00
14041;BME280;7095;51.388;6.196;2024-02-14T12:04:18;115208.13;;;-145.32;100.00
14041;BME280;7095;51.388;6.196;2024-02-14T12:06:47;115208.13;;;-145.32;100.00
14041;BME280;7095;51.388;6.196;2024-02-14T12:09:16;115467.22;;;-145.32;100.00
14041;BME280;7095;51.388;6.196;2024-02-14T12:11:52;115726.31;;;-145.32;100.00
14041;BME280;7095;51.388;6.196;2024-02-14T12:14:21;115726.31;;;-145.32;100.00
14041;BME280;7095;51.388;6.196;2024-02-14T12:16:56;115728.34;;;-145.32;100.00
14041;BME280;7095;51.388;6.196;2024-02-14T12:19:24;115728.34;;;-145.32;100.00
14041;BME280;7095;51.388;6.196;2024-02-14T12:21:59;115728.34;;;-145.32;100.00
14041;BME280;7095;51.388;6.196;2024-02-14T12:24:29;115728.34;;;-145.32;100.00
14041;BME280;7095;51.388;6.196;2024-02-14T12:26:58;115728.34;;;-145.32;100.00
14041;BME280;7095;51.388;6.196;2024-02-14T12:29:26;115728.34;;;-145.32;100.00
14041;BME280;7095;51.388;6.196;2024-02-14T12:32:04;115726.31;;;-145.32;100.00
14041;BME280;7095;51.388;6.196;2024-02-14T12:34:33;115728.34;;;-145.32;100.00
14041;BME280;7095;51.388;6.196;2024-02-14T12:37:03;115726.31;;;-145.32;100.00
14041;BME280;7095;51.388;6.196;2024-02-14T12:39:32;115726.31;;;-145.32;100.00
14041;BME280;7095;51.388;6.196;2024-02-14T12:42:01;115467.22;;;-145.32;100.00
14041;BME280;7095;51.388;6.196;2024-02-14T12:44:30;115208.13;;;-145.32;100.00
14041;BME280;7095;51.388;6.196;2024-02-14T12:46:59;115467.22;;;-145.32;100.00
14041;BME280;7095;51.388;6.196;2024-02-14T12:49:29;114431.03;;;-145.32;100.00
14041;BME280;7095;51.388;6.196;2024-02-14T12:51:59;114431.03;;;-145.32;100.00